Time;durP1;ratioP1;P1;durP2;ratioP2;P2;SDS_P1;SDS_P2;PMS_P1;PMS_P2;Temp;Humidity;BMP_temperature;BMP_pressure;BME280_temperature;BME280_humidity;BME280_pressure;Samples;Min_cycle;Max_cycle;Signal;HPM_P1;HPM_P2
2023/10/21 00:00:34;;;;;;;6.47;3.72;;;;;;;23.40;52.97;97456.53;5093385;28;20068;-68
2023/10/21 00:03:03;;;;;;;1.75;1.35;;;;;;;23.38;53.04;97468.84;5093441;28;20044;-71
2023/10/21 00:05:32;;;;;;;2.70;1.70;;;;;;;23.34;53.17;97472.66;5093350;28;20067;-71
2023/10/21 00:08:01;;;;;;;0.95;0.90;;;;;;;23.35;53.05;97479.53;5093323;28;20067;-72
2023/10/21 00:10:30;;;;;;;2.35;1.42;;;;;;;23.30;53.30;97481.69;5093362;28;20141;-70
2023/10/21 00:12:59;;;;;;;5.25;2.28;;;;;;;23.23;53.33;97481.41;5091850;28;20048;-70
2023/10/21 00:15:29;;;;;;;1.63;1.17;;;;;;;23.16;53.68;97489.88;5093262;28;20123;-67
2023/10/21 00:17:58;;;;;;;1.50;1.08;;;;;;;23.08;53.55;97476.72;5093256;28;20069;-70
2023/10/21 00:20:27;;;;;;;1.55;1.20;;;;;;;23.02;53.94;97474.63;5094296;28;20566;-70
2023/10/21 00:22:56;;;;;;;1.88;1.77;;;;;;;23.00;54.08;97463.53;5096886;28;20101;-69
2023/10/21 00:25:24;;;;;;;1.05;0.98;;;;;;;23.03;54.01;97478.88;5097039;28;20046;-71
2023/10/21 00:27:53;;;;;;;2.38;1.98;;;;;;;23.01;54.08;97488.63;5095277;28;20047;-70
2023/10/21 00:30:22;;;;;;;1.65;1.08;;;;;;;22.97;54.15;97490.66;5096921;28;20051;-68
2023/10/21 00:32:53;;;;;;;1.67;1.55;;;;;;;23.03;53.92;97484.09;5096040;28;20040;-71
2023/10/21 00:35:22;;;;;;;3.53;2.03;;;;;;;23.04;53.89;97502.16;5096009;28;20422;-71
2023/10/21 00:37:51;;;;;;;8.00;1.23;;;;;;;23.05;53.90;97500.41;5095646;28;20039;-70
2023/10/21 00:40:20;;;;;;;1.23;1.13;;;;;;;23.01;53.84;97502.41;5095463;28;20043;-71
2023/10/21 00:42:49;;;;;;;5.03;2.03;;;;;;;22.98;54.19;97501.88;5095549;28;20063;-68
2023/10/21 00:45:18;;;;;;;11.70;3.05;;;;;;;22.93;54.22;97504.88;5096918;28;20394;-68
2023/10/21 00:47:47;;;;;;;1.27;1.08;;;;;;;22.89;54.35;97500.88;5095650;28;20048;-68
2023/10/21 00:50:18;;;;;;;9.65;1.98;;;;;;;22.86;54.47;97497.72;5095335;28;20520;-70
2023/10/21 00:52:48;;;;;;;4.40;1.40;;;;;;;22.86;54.54;97502.94;5096825;28;20512;-65
2023/10/21 00:55:17;;;;;;;0.88;0.80;;;;;;;22.85;54.71;97488.25;5096476;28;20058;-68
2023/10/21 00:57:45;;;;;;;1.25;1.13;;;;;;;22.82;54.64;97485.94;5096394;28;20038;-67
2023/10/21 01:00:16;;;;;;;5.20;2.17;;;;;;;22.79;54.93;97481.00;5096890;28;20402;-71
2023/10/21 01:02:48;;;;;;;6.40;1.85;;;;;;;22.78;54.89;97479.34;5096393;28;20040;-70
2023/10/21 01:05:19;;;;;;;1.55;0.82;;;;;;;22.78;54.65;97484.53;5096364;28;20044;-72
2023/10/21 01:07:48;;;;;;;1.20;1.05;;;;;;;22.79;54.99;97487.03;5096205;28;20502;-69
2023/10/21 01:10:17;;;;;;;1.67;1.45;;;;;;;22.80;54.79;97474.81;5095256;28;20131;-69
2023/10/21 01:12:46;;;;;;;2.92;1.52;;;;;;;22.82;54.72;97480.75;5096075;28;20040;-69
2023/10/21 01:15:14;;;;;;;3.20;1.35;;;;;;;22.85;54.79;97483.06;5095223;28;20397;-69
2023/10/21 01:17:49;;;;;;;1.17;0.80;;;;;;;22.84;54.71;97478.81;5094855;28;20040;-69
2023/10/21 01:20:20;;;;;;;2.58;1.80;;;;;;;22.82;54.77;97480.75;5094775;28;20195;-69
2023/10/21 01:22:49;;;;;;;1.52;1.38;;;;;;;22.79;54.83;97483.59;5095975;28;20071;-68
2023/10/21 01:25:19;;;;;;;1.13;1.02;;;;;;;22.77;54.84;97483.72;5096006;28;20043;-71
2023/10/21 01:27:53;;;;;;;1.42;1.33;;;;;;;22.77;54.84;97494.09;5096180;28;20396;-70
2023/10/21 01:30:23;;;;;;;1.52;1.35;;;;;;;22.75;55.06;97516.03;5094979;28;20471;-72
2023/10/21 01:32:51;;;;;;;3.92;1.17;;;;;;;22.67;55.68;97530.47;5095260;28;20055;-67
2023/10/21 01:35:23;;;;;;;1.95;1.42;;;;;;;22.50;57.26;97544.06;5096005;28;20151;-69
2023/10/21 01:37:52;;;;;;;11.55;1.77;;;;;;;22.36;57.97;97549.53;5095929;28;20386;-72
2023/10/21 01:40:22;;;;;;;3.70;2.55;;;;;;;22.26;58.50;97553.88;5095517;28;20032;-72
2023/10/21 01:42:52;;;;;;;1.40;1.20;;;;;;;22.25;59.60;97544.41;5095911;28;20075;-68
2023/10/21 01:45:23;;;;;;;1.55;1.38;;;;;;;22.23;60.42;97556.72;5095867;28;20032;-71
2023/10/21 01:47:52;;;;;;;2.17;1.52;;;;;;;22.21;60.99;97557.78;5094294;28;20055;-70
2023/10/21 01:50:22;;;;;;;5.80;1.58;;;;;;;22.14;61.62;97564.44;5095373;28;20062;-69
2023/10/21 01:52:51;;;;;;;2.75;2.05;;;;;;;22.02;62.27;97563.66;5094471;28;20093;-69
2023/10/21 01:55:20;;;;;;;2.33;1.40;;;;;;;21.93;62.81;97564.41;5095670;28;20036;-69
2023/10/21 01:57:51;;;;;;;1.13;0.95;;;;;;;21.83;63.57;97553.06;5094066;28;20036;-69
2023/10/21 02:00:21;;;;;;;0.85;0.75;;;;;;;21.71;63.96;97551.47;5093984;28;20059;-70
2023/10/21 02:02:51;;;;;;;4.68;1.90;;;;;;;21.63;64.36;97548.63;5095096;28;20079;-72
2023/10/21 02:05:21;;;;;;;1.73;0.55;;;;;;;21.56;64.74;97560.44;5094549;28;20569;-69
2023/10/21 02:07:50;;;;;;;;;;;;;;;21.48;65.38;97568.84;5095549;28;20052;-70
2023/10/21 02:10:19;;;;;;;;;;;;;;;21.38;65.77;97564.50;5095362;28;20010;-71
2023/10/21 02:12:48;;;;;;;1.23;1.13;;;;;;;21.25;66.46;97556.84;5095029;28;19926;-71
2023/10/21 02:15:19;;;;;;;2.05;1.45;;;;;;;21.12;66.86;97540.56;5095030;28;20047;-69
2023/10/21 02:17:48;;;;;;;1.45;1.35;;;;;;;21.03;67.60;97533.47;5095772;28;20067;-67
2023/10/21 02:20:17;;;;;;;;;;;;;;;20.94;68.16;97527.22;5093971;28;20032;-69
2023/10/21 02:22:46;;;;;;;0.80;0.70;;;;;;;20.93;68.29;97527.31;5095352;28;19920;-69
2023/10/21 02:25:16;;;;;;;6.93;1.60;;;;;;;20.92;68.24;97529.13;5094676;28;20048;-71
2023/10/21 02:27:47;;;;;;;2.70;2.38;;;;;;;20.92;68.41;97512.72;5093594;28;20044;-70
2023/10/21 02:30:18;;;;;;;1.50;1.40;;;;;;;20.88;68.35;97500.91;5094626;28;20152;-70
2023/10/21 02:32:48;;;;;;;5.88;1.20;;;;;;;20.88;68.12;97495.72;5093367;28;20050;-70
2023/10/21 02:35:18;;;;;;;1.02;0.93;;;;;;;20.91;67.81;97470.41;5094859;28;20048;-69
2023/10/21 02:37:47;;;;;;;1.70;1.27;;;;;;;20.98;67.18;97475.94;5093357;28;20075;-69
2023/10/21 02:40:16;;;;;;;7.22;1.95;;;;;;;21.08;66.36;97493.28;5093234;28;20131;-72
2023/10/21 02:42:48;;;;;;;5.35;1.60;;;;;;;21.16;65.43;97506.47;5093596;28;20048;-70
2023/10/21 02:45:19;;;;;;;5.13;2.08;;;;;;;21.26;64.94;97517.78;5093540;28;20048;-70
2023/10/21 02:47:48;;;;;;;2.45;2.03;;;;;;;21.34;64.11;97531.00;5093750;28;20044;-67
2023/10/21 02:50:17;;;;;;;1.63;1.52;;;;;;;21.42;63.97;97521.78;5094610;28;20055;-68
2023/10/21 02:52:46;;;;;;;1.23;1.13;;;;;;;21.45;63.36;97526.75;5094265;28;20054;-69
2023/10/21 02:55:15;;;;;;;3.30;2.17;;;;;;;21.57;62.68;97530.97;5094138;28;20093;-69
2023/10/21 02:57:45;;;;;;;36.00;2.50;;;;;;;21.67;61.85;97537.03;5093001;28;20040;-70
2023/10/21 03:00:17;;;;;;;2.05;1.42;;;;;;;21.67;62.05;97521.47;5094174;28;20044;-73
2023/10/21 03:02:49;;;;;;;0.70;0.70;;;;;;;21.68;61.97;97517.94;5093966;28;20040;-68
2023/10/21 03:05:19;;;;;;;3.67;2.03;;;;;;;21.72;61.41;97508.94;5094052;28;20101;-70
2023/10/21 03:07:48;;;;;;;10.23;1.23;;;;;;;21.76;61.45;97499.97;5092836;28;20052;-69
2023/10/21 03:10:17;;;;;;;0.60;0.60;;;;;;;21.79;61.11;97494.50;5093082;28;20044;-70
2023/10/21 03:12:46;;;;;;;8.77;1.77;;;;;;;21.84;60.85;97493.22;5093097;28;20398;-71
2023/10/21 03:15:15;;;;;;;3.00;1.40;;;;;;;21.90;60.67;97487.56;5092644;28;20047;-71
2023/10/21 03:17:44;;;;;;;;;;;;;;;21.88;60.65;97476.44;5093097;28;20047;-72
2023/10/21 03:20:14;;;;;;;0.77;0.77;;;;;;;21.88;60.65;97502.41;5093867;28;20117;-68
2023/10/21 03:22:44;;;;;;;3.53;2.35;;;;;;;21.97;60.28;97511.25;5092295;28;20567;-71
2023/10/21 03:25:13;;;;;;;3.55;1.35;;;;;;;21.96;60.16;97491.41;5093779;28;20047;-70
2023/10/21 03:27:42;;;;;;;2.85;1.83;;;;;;;22.00;59.91;97508.41;5094127;28;20062;-72
2023/10/21 03:30:12;;;;;;;1.58;1.15;;;;;;;22.04;59.37;97520.19;5093687;28;20044;-70
2023/10/21 03:32:41;;;;;;;1.10;0.85;;;;;;;22.06;59.16;97544.28;5092535;28;20067;-67
2023/10/21 03:35:10;;;;;;;1.75;1.40;;;;;;;22.04;59.44;97546.19;5092721;28;20040;-71
2023/10/21 03:37:41;;;;;;;5.30;1.85;;;;;;;21.95;59.82;97562.50;5093687;28;20056;-66
2023/10/21 03:40:11;;;;;;;3.92;1.55;;;;;;;21.87;60.39;97570.91;5092451;28;20044;-65
2023/10/21 03:42:40;;;;;;;0.82;0.80;;;;;;;21.76;60.83;97565.69;5093735;28;20135;-71
2023/10/21 03:45:10;;;;;;;0.60;0.60;;;;;;;21.74;60.93;97574.59;5092344;28;20040;-69
2023/10/21 03:47:39;;;;;;;1.00;0.90;;;;;;;21.72;60.86;97581.66;5093579;28;20046;-72
2023/10/21 03:50:09;;;;;;;1.13;0.90;;;;;;;21.70;60.95;97583.53;5092375;28;20105;-73
2023/10/21 03:52:41;;;;;;;0.68;0.68;;;;;;;21.69;61.07;97587.09;5092392;28;20059;-69
2023/10/21 03:55:10;;;;;;;1.15;0.95;;;;;;;21.68;61.12;97585.44;5095891;28;20047;-68
2023/10/21 03:57:39;;;;;;;1.38;1.27;;;;;;;21.67;61.42;97595.00;5097650;28;20036;-70
2023/10/21 04:00:12;;;;;;;1.58;1.40;;;;;;;21.68;61.52;97601.03;5097576;28;20047;-67
2023/10/21 04:02:41;;;;;;;1.70;1.42;;;;;;;21.72;61.42;97612.81;5096376;28;20036;-66
2023/10/21 04:05:10;;;;;;;5.22;2.35;;;;;;;21.73;61.22;97614.47;5097568;28;20044;-70
2023/10/21 04:07:39;;;;;;;1.27;1.02;;;;;;;21.72;61.24;97623.19;5097314;28;20036;-70
2023/10/21 04:10:10;;;;;;;4.90;2.42;;;;;;;21.71;61.32;97626.75;5097379;28;20123;-70
2023/10/21 04:12:42;;;;;;;1.10;1.00;;;;;;;21.66;61.59;97629.72;5098242;28;20036;-69
2023/10/21 04:15:11;;;;;;;1.70;0.77;;;;;;;21.64;61.88;97631.63;5097312;28;20048;-69
2023/10/21 04:17:40;;;;;;;0.57;0.57;;;;;;;21.70;61.49;97625.09;5097154;28;20093;-70
2023/10/21 04:20:12;;;;;;;0.82;0.82;;;;;;;21.67;61.36;97628.75;5097221;28;20042;-68
2023/10/21 04:22:42;;;;;;;2.55;1.75;;;;;;;21.62;61.70;97637.88;5096799;28;20036;-69
2023/10/21 04:25:12;;;;;;;0.40;0.40;;;;;;;21.58;61.99;97646.81;5097643;28;20036;-68
2023/10/21 04:27:41;;;;;;;3.50;1.65;;;;;;;21.55;61.94;97641.84;5097406;28;20040;-71
2023/10/21 04:30:11;;;;;;;1.17;0.85;;;;;;;21.53;61.82;97648.94;5096963;28;20044;-68
2023/10/21 04:32:41;;;;;;;0.60;0.60;;;;;;;21.52;61.51;97636.94;5097491;28;20036;-69
2023/10/21 04:35:10;;;;;;;0.95;0.90;;;;;;;21.51;61.29;97643.06;5096847;28;20063;-69
2023/10/21 04:37:39;;;;;;;0.57;0.57;;;;;;;21.50;61.45;97639.63;5097081;28;20048;-70
2023/10/21 04:40:09;;;;;;;1.63;1.33;;;;;;;21.48;61.25;97651.06;5096754;28;20086;-67
2023/10/21 04:42:39;;;;;;;0.82;0.82;;;;;;;21.44;61.34;97654.84;5097253;28;20046;-70
2023/10/21 04:45:09;;;;;;;1.05;0.95;;;;;;;21.43;61.15;97668.78;5097037;28;20559;-70
2023/10/21 04:47:38;;;;;;;5.65;0.95;;;;;;;21.38;60.61;97669.13;5096570;28;20044;-70
2023/10/21 04:50:08;;;;;;;0.47;0.47;;;;;;;21.36;60.53;97679.63;5096548;28;20052;-68
2023/10/21 04:52:37;;;;;;;0.65;0.65;;;;;;;21.33;60.13;97687.63;5096510;28;20044;-69
2023/10/21 04:55:06;;;;;;;0.65;0.57;;;;;;;21.29;59.78;97704.41;5096639;28;20044;-70
2023/10/21 04:57:35;;;;;;;0.45;0.45;;;;;;;21.27;59.09;97721.84;5096653;28;20514;-69
2023/10/21 05:00:08;;;;;;;0.45;0.45;;;;;;;21.27;59.06;97718.44;5096385;28;20494;-68
2023/10/21 05:02:37;;;;;;;2.28;1.30;;;;;;;21.20;58.98;97719.84;5096299;28;20097;-70
2023/10/21 05:05:07;;;;;;;0.60;0.60;;;;;;;21.16;58.94;97734.00;5096609;28;20079;-70
2023/10/21 05:07:36;;;;;;;1.52;0.73;;;;;;;21.13;59.19;97735.03;5095330;28;20055;-70
2023/10/21 05:10:05;;;;;;;0.60;0.60;;;;;;;21.12;58.92;97733.38;5096241;28;20044;-69
2023/10/21 05:12:35;;;;;;;0.30;0.30;;;;;;;21.10;58.86;97724.06;5096451;28;20041;-69
2023/10/21 05:15:06;;;;;;;0.40;0.40;;;;;;;21.07;58.47;97726.88;5096203;28;20408;-70
2023/10/21 05:17:36;;;;;;;0.50;0.50;;;;;;;21.03;58.28;97728.84;5096437;28;20051;-69
2023/10/21 05:20:07;;;;;;;0.70;0.70;;;;;;;21.01;58.54;97751.47;5096021;28;20065;-68
2023/10/21 05:22:36;;;;;;;0.65;0.65;;;;;;;21.02;58.45;97750.53;5095659;28;20553;-68
2023/10/21 05:25:07;;;;;;;0.93;0.85;;;;;;;20.98;58.55;97767.25;5096039;28;20101;-68
2023/10/21 05:27:36;;;;;;;0.88;0.88;;;;;;;20.98;58.75;97788.00;5096015;28;20054;-68
2023/10/21 05:30:08;;;;;;;3.80;1.25;;;;;;;20.97;58.89;97791.53;5095844;28;20086;-68
2023/10/21 05:32:37;;;;;;;0.73;0.73;;;;;;;20.93;59.12;97800.47;5096113;28;20052;-68
2023/10/21 05:35:07;;;;;;;1.20;1.10;;;;;;;20.90;59.44;97800.69;5096115;28;20040;-70
2023/10/21 05:37:36;;;;;;;0.40;0.40;;;;;;;20.91;59.13;97797.19;5094560;28;20505;-70
2023/10/21 05:40:06;;;;;;;0.40;0.40;;;;;;;20.91;59.29;97797.19;5095609;28;20545;-69
2023/10/21 05:42:35;;;;;;;0.70;0.70;;;;;;;20.88;59.44;97812.13;5095771;28;20131;-69
2023/10/21 05:45:04;;;;;;;0.47;0.47;;;;;;;20.80;59.78;97809.28;5095483;28;20044;-67
2023/10/21 05:47:35;;;;;;;;;;;;;;;20.78;59.91;97819.72;5095806;28;20040;-68
2023/10/21 05:50:04;;;;;;;0.40;0.40;;;;;;;20.74;59.95;97826.09;5095458;28;19920;-67
2023/10/21 05:52:33;;;;;;;0.40;0.40;;;;;;;20.71;60.16;97840.09;5095419;28;20533;-69
2023/10/21 05:55:04;;;;;;;0.60;0.57;;;;;;;20.66;60.47;97838.75;5095620;28;20040;-67
2023/10/21 05:57:33;;;;;;;0.40;0.40;;;;;;;20.63;60.52;97854.56;5095309;28;20076;-68
2023/10/21 06:00:02;;;;;;;0.40;0.40;;;;;;;20.60;60.73;97859.94;5095243;28;20127;-69
2023/10/21 06:02:32;;;;;;;0.73;0.73;;;;;;;20.57;60.91;97860.16;5095502;28;20390;-66
2023/10/21 06:05:05;;;;;;;0.85;0.85;;;;;;;20.55;61.11;97862.03;5094948;28;20584;-67
2023/10/21 06:07:34;;;;;;;0.50;0.50;;;;;;;20.49;61.62;97865.06;5095111;28;20044;-67
2023/10/21 06:10:04;;;;;;;0.50;0.50;;;;;;;20.44;61.82;97867.13;5094568;28;20055;-69
2023/10/21 06:12:33;;;;;;;0.30;0.30;;;;;;;20.41;62.14;97868.19;5095046;28;20040;-68
2023/10/21 06:15:03;;;;;;;1.17;1.08;;;;;;;20.39;62.46;97888.19;5083714;28;20437;-68
2023/10/21 06:17:32;;;;;;;0.75;0.75;;;;;;;20.39;62.70;97897.72;5083633;28;20378;-68
2023/10/21 06:20:03;;;;;;;0.40;0.40;;;;;;;20.36;62.96;97903.94;5083062;28;20040;-68
2023/10/21 06:22:31;;;;;;;0.52;0.50;;;;;;;20.34;63.13;97904.97;5083455;28;20505;-68
2023/10/21 06:25:01;;;;;;;0.80;0.80;;;;;;;20.31;63.51;97905.19;5085682;28;20486;-68
2023/10/21 06:27:30;;;;;;;1.15;1.05;;;;;;;20.26;63.74;97897.72;5092771;28;20048;-67
2023/10/21 06:29:59;;;;;;;0.50;0.50;;;;;;;20.22;64.18;97898.03;5088227;28;20064;-67
2023/10/21 06:32:28;;;;;;;1.42;0.50;;;;;;;20.20;64.44;97897.28;5083790;28;20032;-68
2023/10/21 06:34:57;;;;;;;4.85;0.88;;;;;;;20.21;64.63;97898.94;5082163;28;20124;-67
2023/10/21 06:37:27;;;;;;;0.75;0.75;;;;;;;20.18;65.10;97910.34;5085736;28;20048;-68
2023/10/21 06:39:56;;;;;;;0.73;0.73;;;;;;;20.19;65.00;97921.53;5094807;28;20044;-67
2023/10/21 06:42:25;;;;;;;0.75;0.75;;;;;;;20.23;65.28;97930.81;5094331;28;20042;-68
2023/10/21 06:44:54;;;;;;;1.33;1.00;;;;;;;20.25;65.50;97926.34;5094105;28;20039;-68
2023/10/21 06:47:23;;;;;;;5.32;2.03;;;;;;;20.24;65.43;97927.25;5094287;28;20044;-68
2023/10/21 06:49:52;;;;;;;1.00;0.73;;;;;;;20.27;65.88;97934.84;5094252;28;20090;-67
2023/10/21 06:52:21;;;;;;;0.60;0.60;;;;;;;20.30;65.47;97929.47;5094863;28;20036;-67
2023/10/21 06:54:53;;;;;;;1.27;1.17;;;;;;;20.34;66.02;97941.25;5094178;28;20047;-68
2023/10/21 06:57:22;;;;;;;1.17;1.08;;;;;;;20.39;65.96;97944.38;5094446;28;20295;-68
2023/10/21 06:59:53;;;;;;;0.40;0.40;;;;;;;20.46;66.09;97956.81;5094185;28;20444;-68
2023/10/21 07:02:22;;;;;;;0.80;0.80;;;;;;;20.52;66.24;97966.75;5094356;28;20470;-67
2023/10/21 07:04:50;;;;;;;0.85;0.82;;;;;;;20.61;66.12;97973.09;5094294;28;20379;-68
2023/10/21 07:07:19;;;;;;;0.60;0.60;;;;;;;20.65;66.28;97982.31;5094040;28;20036;-68
2023/10/21 07:09:48;;;;;;;2.90;2.20;;;;;;;20.71;66.36;97987.88;5094084;28;20040;-68
2023/10/21 07:12:19;;;;;;;1.38;0.70;;;;;;;20.74;66.75;97989.44;5093916;28;20285;-68
2023/10/21 07:14:49;;;;;;;0.68;0.68;;;;;;;20.74;66.92;98002.41;5094141;28;20131;-68
2023/10/21 07:17:19;;;;;;;0.52;0.52;;;;;;;20.78;67.19;98000.44;5093893;28;20087;-68
2023/10/21 07:19:47;;;;;;;5.38;0.93;;;;;;;20.77;67.43;98011.75;5093702;28;20127;-68
2023/10/21 07:22:16;;;;;;;1.45;0.75;;;;;;;20.76;67.67;98018.69;5093565;28;20131;-68
2023/10/21 07:24:45;;;;;;;0.40;0.40;;;;;;;20.77;68.21;98033.31;5093703;28;20048;-68
2023/10/21 07:27:14;;;;;;;0.35;0.35;;;;;;;20.76;68.41;98026.47;5093780;28;20375;-67
2023/10/21 07:29:46;;;;;;;0.73;0.70;;;;;;;20.72;68.55;98030.22;5093740;28;20048;-69
2023/10/21 07:32:15;;;;;;;0.68;0.68;;;;;;;20.71;69.13;98028.53;5094484;28;20036;-69
2023/10/21 07:34:44;;;;;;;5.28;1.77;;;;;;;20.72;68.73;98035.41;5093885;28;20078;-71
2023/10/21 07:37:13;;;;;;;0.75;0.75;;;;;;;20.69;68.55;98045.97;5094136;28;20430;-70
2023/10/21 07:39:42;;;;;;;2.17;1.40;;;;;;;20.72;68.47;98043.19;5093960;28;20048;-67
2023/10/21 07:42:12;;;;;;;1.30;1.20;;;;;;;20.73;68.17;98052.63;5093827;28;20054;-68
2023/10/21 07:44:42;;;;;;;0.40;0.40;;;;;;;20.77;67.77;98053.22;5092363;28;20040;-66
2023/10/21 07:47:12;;;;;;;0.45;0.45;;;;;;;20.77;67.79;98056.66;5093651;28;20032;-66
2023/10/21 07:49:41;;;;;;;1.00;0.93;;;;;;;20.78;67.42;98055.72;5093492;28;20048;-67
2023/10/21 07:52:10;;;;;;;0.80;0.80;;;;;;;20.86;67.32;98056.03;5093517;28;20048;-67
2023/10/21 07:54:39;;;;;;;1.95;1.08;;;;;;;20.99;67.38;98074.19;5093502;28;20305;-68
2023/10/21 07:57:08;;;;;;;1.30;1.20;;;;;;;21.09;66.92;98085.63;5093581;28;20070;-68
2023/10/21 07:59:37;;;;;;;0.90;0.85;;;;;;;21.13;66.85;98093.09;5093422;28;20097;-69
2023/10/21 08:02:06;;;;;;;0.40;0.40;;;;;;;21.19;66.80;98092.66;5093465;28;20041;-67
2023/10/21 08:04:37;;;;;;;1.08;0.93;;;;;;;21.25;66.56;98102.63;5093561;28;20044;-67
2023/10/21 08:07:06;;;;;;;0.70;0.70;;;;;;;21.30;66.53;98095.34;5093708;28;20127;-69
2023/10/21 08:09:41;;;;;;;0.45;0.45;;;;;;;21.34;66.59;98094.19;5093494;28;20081;-69
2023/10/21 08:12:10;;;;;;;0.90;0.55;;;;;;;21.38;66.48;98093.03;5093235;28;20041;-69
2023/10/21 08:14:40;;;;;;;1.85;1.42;;;;;;;21.49;66.40;98088.88;5094194;28;20071;-69
2023/10/21 08:17:09;;;;;;;8.45;1.02;;;;;;;21.72;66.12;98093.25;5093246;28;20055;-67
2023/10/21 08:19:40;;;;;;;0.43;0.43;;;;;;;21.89;65.61;98092.91;5093658;28;20040;-67
2023/10/21 08:22:08;;;;;;;0.40;0.40;;;;;;;21.86;65.49;98103.50;5093093;28;20292;-67
2023/10/21 08:24:37;;;;;;;0.52;0.52;;;;;;;21.73;65.29;98105.31;5093420;28;20040;-68
2023/10/21 08:27:07;;;;;;;0.50;0.50;;;;;;;21.59;65.20;98115.84;5093139;28;20052;-67
2023/10/21 08:29:35;;;;;;;1.50;1.15;;;;;;;21.45;65.36;98116.78;5093597;28;20036;-68
2023/10/21 08:32:05;;;;;;;0.43;0.43;;;;;;;21.37;65.50;98119.13;5093083;28;20047;-68
2023/10/21 08:34:36;;;;;;;0.98;0.88;;;;;;;21.31;65.75;98125.56;5092964;28;20048;-66
2023/10/21 08:37:08;;;;;;;0.50;0.50;;;;;;;21.30;65.74;98129.09;5093775;28;20044;-70
2023/10/21 08:39:37;;;;;;;1.25;1.08;;;;;;;21.29;65.77;98137.81;5093427;28;20391;-69
2023/10/21 08:42:07;;;;;;;0.50;0.47;;;;;;;21.28;65.64;98136.13;5094975;28;20047;-67
2023/10/21 08:44:37;;;;;;;1.67;1.08;;;;;;;21.34;65.84;98143.50;5095476;28;20067;-69
2023/10/21 08:47:08;;;;;;;0.63;0.63;;;;;;;21.35;66.10;98145.16;5096608;28;20052;-69
2023/10/21 08:49:37;;;;;;;0.40;0.40;;;;;;;21.49;66.13;98153.78;5096981;28;20067;-68
2023/10/21 08:52:11;;;;;;;0.40;0.40;;;;;;;21.58;65.79;98163.50;5097255;28;20040;-68
2023/10/21 08:54:43;;;;;;;0.82;0.82;;;;;;;21.61;65.48;98171.09;5096573;28;20123;-67
2023/10/21 08:57:12;;;;;;;8.50;2.17;;;;;;;21.60;65.76;98161.63;5097168;28;20395;-67
2023/10/21 08:59:41;;;;;;;9.18;0.95;;;;;;;21.57;65.91;98159.28;5096420;28;20118;-67
2023/10/21 09:02:10;;;;;;;0.43;0.43;;;;;;;21.51;66.09;98165.72;5096347;28;20094;-69
2023/10/21 09:04:39;;;;;;;0.40;0.40;;;;;;;21.44;66.09;98164.47;5096212;28;20047;-70
2023/10/21 09:07:10;;;;;;;0.75;0.75;;;;;;;21.42;66.13;98165.53;5096615;28;20069;-68
2023/10/21 09:09:39;;;;;;;0.40;0.40;;;;;;;21.37;66.18;98158.06;5096431;28;20051;-67
2023/10/21 09:12:11;;;;;;;0.40;0.40;;;;;;;21.39;65.74;98166.56;5096181;28;20050;-68
2023/10/21 09:14:52;;;;;;;0.47;0.47;;;;;;;21.38;65.99;98179.66;5096239;28;20505;-67
2023/10/21 09:17:21;;;;;;;0.60;0.60;;;;;;;21.32;66.06;98186.91;5096151;28;20105;-68
2023/10/21 09:19:52;;;;;;;;;;;;;;;21.30;66.32;98182.78;5096480;28;20044;-67
2023/10/21 09:22:27;;;;;;;0.40;0.40;;;;;;;21.40;66.21;98186.41;5095945;28;19935;-65
2023/10/21 09:25:15;;;;;;;0.60;0.60;;;;;;;21.65;66.07;98188.94;5096402;28;20042;-65
2023/10/21 09:27:45;;;;;;;0.90;0.90;;;;;;;21.81;65.69;98184.34;5095829;28;20493;-65
2023/10/21 09:30:16;;;;;;;1.95;1.17;;;;;;;21.75;65.29;98183.94;5096116;28;20052;-65
2023/10/21 09:32:46;;;;;;;0.80;0.75;;;;;;;21.57;65.13;98190.44;5095734;28;20044;-65
2023/10/21 09:35:21;;;;;;;0.52;0.52;;;;;;;21.46;65.26;98193.75;5095759;28;20048;-66
2023/10/21 09:37:52;;;;;;;0.45;0.45;;;;;;;21.44;65.35;98197.38;5095714;28;20056;-64
2023/10/21 09:40:24;;;;;;;1.20;1.05;;;;;;;21.43;65.73;98204.34;5095669;28;20055;-67
2023/10/21 09:42:53;;;;;;;0.30;0.30;;;;;;;21.36;66.06;98206.53;5095643;28;20052;-66
2023/10/21 09:45:27;;;;;;;0.40;0.40;;;;;;;21.34;66.10;98216.19;5095513;28;20044;-65
2023/10/21 09:47:58;;;;;;;1.77;0.80;;;;;;;21.33;65.81;98224.09;5095485;28;20051;-65
2023/10/21 09:50:28;;;;;;;0.75;0.75;;;;;;;21.31;65.83;98213.81;5095716;28;20075;-64
2023/10/21 09:53:08;;;;;;;0.30;0.30;;;;;;;21.34;65.81;98203.22;5095050;28;20040;-66
2023/10/21 09:55:39;;;;;;;0.98;0.85;;;;;;;21.53;65.57;98199.34;5095276;28;20036;-64
2023/10/21 09:58:09;;;;;;;1.67;1.58;;;;;;;21.87;65.26;98219.50;5095639;28;20042;-65
2023/10/21 10:00:40;;;;;;;0.73;0.73;;;;;;;22.08;64.23;98220.59;5095471;28;20054;-66
2023/10/21 10:03:10;;;;;;;0.40;0.40;;;;;;;22.15;63.97;98234.00;5094062;28;20048;-64
2023/10/21 10:05:42;;;;;;;1.02;1.00;;;;;;;22.02;63.76;98228.81;5095088;28;20493;-65
2023/10/21 10:08:13;;;;;;;0.43;0.43;;;;;;;21.83;63.85;98218.03;5095093;28;20044;-65
2023/10/21 10:10:42;;;;;;;0.40;0.40;;;;;;;21.80;64.11;98220.81;5095087;28;20048;-66
2023/10/21 10:13:15;;;;;;;0.50;0.50;;;;;;;21.90;63.58;98220.13;5095263;28;20047;-64
2023/10/21 10:15:45;;;;;;;0.50;0.50;;;;;;;22.07;63.60;98226.75;5094995;28;20040;-65
2023/10/21 10:18:15;;;;;;;;;;;;;;;22.33;63.28;98223.13;5095567;28;20040;-65
2023/10/21 10:20:46;;;;;;;0.55;0.55;;;;;;;22.65;62.71;98219.03;5093825;28;20419;-64
2023/10/21 10:23:18;;;;;;;0.63;0.60;;;;;;;22.68;62.39;98218.81;5094603;28;20127;-64
2023/10/21 10:25:51;;;;;;;1.10;0.55;;;;;;;22.53;62.43;98219.09;5094703;28;20126;-65
2023/10/21 10:28:22;;;;;;;0.85;0.85;;;;;;;22.47;62.57;98215.16;5094707;28;20048;-64
2023/10/21 10:30:51;;;;;;;0.30;0.30;;;;;;;22.53;62.37;98230.28;5094625;28;20094;-64
2023/10/21 10:33:22;;;;;;;0.65;0.65;;;;;;;22.57;62.40;98225.72;5094567;28;20556;-65
2023/10/21 10:35:53;;;;;;;0.38;0.38;;;;;;;22.68;62.27;98228.38;5094833;28;20036;-65
2023/10/21 10:38:28;;;;;;;0.40;0.40;;;;;;;22.98;61.79;98230.50;5093343;28;20075;-64
2023/10/21 10:41:06;;;;;;;8.68;0.82;;;;;;;23.24;60.92;98226.78;5094878;28;20417;-64
2023/10/21 10:43:36;;;;;;;0.40;0.40;;;;;;;23.17;60.33;98212.56;5094450;28;20059;-65
2023/10/21 10:46:06;;;;;;;0.93;0.85;;;;;;;23.05;60.30;98205.69;5094317;28;20085;-63
2023/10/21 10:48:35;;;;;;;0.40;0.40;;;;;;;22.87;60.54;98212.25;5094697;28;20145;-65
2023/10/21 10:51:10;;;;;;;0.73;0.73;;;;;;;22.90;60.61;98218.06;5094349;28;20040;-66
2023/10/21 10:53:41;;;;;;;0.70;0.70;;;;;;;22.87;60.86;98218.28;5094265;28;20048;-65
2023/10/21 10:56:14;;;;;;;0.60;0.60;;;;;;;22.86;61.33;98223.63;5094607;28;20039;-65
2023/10/21 10:58:46;;;;;;;0.40;0.40;;;;;;;22.85;61.28;98225.38;5094488;28;20108;-66
2023/10/21 11:01:19;;;;;;;0.40;0.40;;;;;;;22.97;60.93;98224.47;5094185;28;20126;-68
2023/10/21 11:03:55;;;;;;;0.40;0.40;;;;;;;23.19;60.55;98226.31;5093467;28;20079;-64
2023/10/21 11:06:26;;;;;;;0.45;0.45;;;;;;;23.20;60.49;98220.16;5093966;28;20036;-63
2023/10/21 11:08:58;;;;;;;0.40;0.40;;;;;;;23.18;60.43;98219.41;5094094;28;20048;-65
2023/10/21 11:11:27;;;;;;;0.63;0.63;;;;;;;23.36;60.13;98230.28;5094257;28;20074;-64
2023/10/21 11:13:57;;;;;;;0.50;0.50;;;;;;;23.32;60.15;98221.84;5094538;28;20052;-64
2023/10/21 11:16:25;;;;;;;0.50;0.50;;;;;;;23.45;59.64;98219.16;5093914;28;20054;-64
2023/10/21 11:18:54;;;;;;;1.98;1.40;;;;;;;23.54;58.92;98224.47;5094218;28;20081;-65
2023/10/21 11:21:39;;;;;;;0.30;0.30;;;;;;;23.52;59.12;98234.19;5093961;28;20040;-65
2023/10/21 11:24:11;;;;;;;0.40;0.40;;;;;;;23.40;58.96;98237.72;5093789;28;20128;-66
2023/10/21 11:26:42;;;;;;;0.40;0.40;;;;;;;23.43;59.19;98240.09;5093978;28;20036;-67
2023/10/21 11:29:10;;;;;;;;;;;;;;;23.76;58.59;98250.56;5094184;28;20048;-67
2023/10/21 11:31:39;;;;;;;0.30;0.30;;;;;;;23.89;57.85;98255.66;5093707;28;19927;-65
2023/10/21 11:34:09;;;;;;;0.45;0.45;;;;;;;23.86;57.69;98246.28;5093615;28;20493;-66
2023/10/21 11:36:39;;;;;;;0.75;0.75;;;;;;;24.10;57.53;98242.75;5093868;28;20044;-65
2023/10/21 11:39:13;;;;;;;1.88;1.17;;;;;;;24.10;57.71;98248.78;5093901;28;20040;-66
2023/10/21 11:41:46;;;;;;;0.50;0.50;;;;;;;23.90;57.57;98252.06;5094033;28;20512;-66
2023/10/21 11:44:17;;;;;;;0.57;0.57;;;;;;;23.99;57.50;98261.81;5093752;28;20071;-64
2023/10/21 11:46:47;;;;;;;0.50;0.50;;;;;;;24.31;57.05;98272.34;5093727;28;20125;-66